sensor_id;sensor_type;location;lat;lon;timestamp;P1;durP1;ratioP1;P2;durP2;ratioP2
4812;SDS011;2420;51.202;8.698;2023-08-30T00:00:41;5.60;;;3.67;;
4812;SDS011;2420;51.202;8.698;2023-08-30T00:03:07;4.22;;;3.47;;
4812;SDS011;2420;51.202;8.698;2023-08-30T00:05:33;4.13;;;3.50;;
4812;SDS011;2420;51.202;8.698;2023-08-30T00:07:58;4.13;;;3.42;;
4812;SDS011;2420;51.202;8.698;2023-08-30T00:10:24;4.20;;;3.67;;
4812;SDS011;2420;51.202;8.698;2023-08-30T00:12:49;3.53;;;3.22;;
4812;SDS011;2420;51.202;8.698;2023-08-30T00:15:15;3.83;;;3.42;;
4812;SDS011;2420;51.202;8.698;2023-08-30T00:17:41;4.10;;;3.70;;
4812;SDS011;2420;51.202;8.698;2023-08-30T00:20:07;7.20;;;3.60;;
4812;SDS011;2420;51.202;8.698;2023-08-30T00:22:33;5.85;;;3.88;;
4812;SDS011;2420;51.202;8.698;2023-08-30T00:24:59;4.85;;;3.70;;
4812;SDS011;2420;51.202;8.698;2023-08-30T00:27:25;4.82;;;3.53;;
4812;SDS011;2420;51.202;8.698;2023-08-30T00:29:50;3.90;;;3.50;;
4812;SDS011;2420;51.202;8.698;2023-08-30T00:32:16;5.07;;;4.30;;
4812;SDS011;2420;51.202;8.698;2023-08-30T00:34:41;4.30;;;3.70;;
4812;SDS011;2420;51.202;8.698;2023-08-30T00:37:07;4.78;;;3.97;;
4812;SDS011;2420;51.202;8.698;2023-08-30T00:39:33;3.92;;;3.50;;
4812;SDS011;2420;51.202;8.698;2023-08-30T00:41:59;4.40;;;4.00;;
4812;SDS011;2420;51.202;8.698;2023-08-30T00:44:29;4.30;;;3.63;;
4812;SDS011;2420;51.202;8.698;2023-08-30T00:46:55;4.35;;;3.95;;
4812;SDS011;2420;51.202;8.698;2023-08-30T00:49:20;8.55;;;4.32;;
4812;SDS011;2420;51.202;8.698;2023-08-30T00:51:46;6.25;;;4.05;;
4812;SDS011;2420;51.202;8.698;2023-08-30T00:54:12;5.78;;;4.00;;
4812;SDS011;2420;51.202;8.698;2023-08-30T00:56:37;6.43;;;4.13;;
4812;SDS011;2420;51.202;8.698;2023-08-30T00:59:03;4.82;;;4.15;;
4812;SDS011;2420;51.202;8.698;2023-08-30T01:01:29;3.97;;;3.58;;
4812;SDS011;2420;51.202;8.698;2023-08-30T01:03:54;6.40;;;4.30;;
4812;SDS011;2420;51.202;8.698;2023-08-30T01:06:20;5.07;;;4.20;;
4812;SDS011;2420;51.202;8.698;2023-08-30T01:08:45;5.03;;;4.45;;
4812;SDS011;2420;51.202;8.698;2023-08-30T01:14:02;5.53;;;4.20;;
4812;SDS011;2420;51.202;8.698;2023-08-30T01:16:32;5.93;;;4.22;;
4812;SDS011;2420;51.202;8.698;2023-08-30T01:18:59;4.85;;;4.07;;
4812;SDS011;2420;51.202;8.698;2023-08-30T01:21:54;4.32;;;3.85;;
4812;SDS011;2420;51.202;8.698;2023-08-30T01:24:28;5.35;;;3.65;;
4812;SDS011;2420;51.202;8.698;2023-08-30T01:27:11;4.40;;;3.85;;
4812;SDS011;2420;51.202;8.698;2023-08-30T01:29:37;5.10;;;4.60;;
4812;SDS011;2420;51.202;8.698;2023-08-30T01:32:07;7.85;;;4.07;;
4812;SDS011;2420;51.202;8.698;2023-08-30T01:34:38;4.90;;;4.40;;
4812;SDS011;2420;51.202;8.698;2023-08-30T01:37:05;4.95;;;4.43;;
4812;SDS011;2420;51.202;8.698;2023-08-30T01:39:33;6.07;;;4.53;;
4812;SDS011;2420;51.202;8.698;2023-08-30T01:42:00;5.47;;;4.38;;
4812;SDS011;2420;51.202;8.698;2023-08-30T01:44:27;6.82;;;4.78;;
4812;SDS011;2420;51.202;8.698;2023-08-30T01:46:54;6.13;;;4.90;;
4812;SDS011;2420;51.202;8.698;2023-08-30T01:49:21;5.63;;;4.70;;
4812;SDS011;2420;51.202;8.698;2023-08-30T01:51:46;4.75;;;4.25;;
4812;SDS011;2420;51.202;8.698;2023-08-30T01:54:13;5.85;;;4.70;;
4812;SDS011;2420;51.202;8.698;2023-08-30T01:56:43;6.50;;;4.60;;
4812;SDS011;2420;51.202;8.698;2023-08-30T01:59:09;5.20;;;4.68;;
4812;SDS011;2420;51.202;8.698;2023-08-30T02:01:35;5.90;;;5.10;;
4812;SDS011;2420;51.202;8.698;2023-08-30T02:04:00;6.20;;;4.95;;
4812;SDS011;2420;51.202;8.698;2023-08-30T02:06:26;6.80;;;4.60;;
4812;SDS011;2420;51.202;8.698;2023-08-30T02:09:18;5.93;;;4.93;;
4812;SDS011;2420;51.202;8.698;2023-08-30T02:11:49;5.72;;;4.50;;
4812;SDS011;2420;51.202;8.698;2023-08-30T02:14:17;5.72;;;5.13;;
4812;SDS011;2420;51.202;8.698;2023-08-30T02:16:45;6.20;;;4.93;;
4812;SDS011;2420;51.202;8.698;2023-08-30T02:19:12;5.28;;;4.78;;
4812;SDS011;2420;51.202;8.698;2023-08-30T02:21:41;6.13;;;5.10;;
4812;SDS011;2420;51.202;8.698;2023-08-30T02:24:07;5.05;;;4.40;;
4812;SDS011;2420;51.202;8.698;2023-08-30T02:26:33;7.55;;;4.47;;
4812;SDS011;2420;51.202;8.698;2023-08-30T02:28:59;6.72;;;4.60;;
4812;SDS011;2420;51.202;8.698;2023-08-30T02:31:24;5.38;;;4.10;;
4812;SDS011;2420;51.202;8.698;2023-08-30T02:33:50;5.18;;;4.50;;
4812;SDS011;2420;51.202;8.698;2023-08-30T02:36:15;6.50;;;4.50;;
4812;SDS011;2420;51.202;8.698;2023-08-30T02:38:41;6.03;;;4.50;;
4812;SDS011;2420;51.202;8.698;2023-08-30T02:41:06;4.95;;;4.43;;
4812;SDS011;2420;51.202;8.698;2023-08-30T02:43:32;5.03;;;4.53;;
4812;SDS011;2420;51.202;8.698;2023-08-30T02:45:58;6.05;;;4.72;;
4812;SDS011;2420;51.202;8.698;2023-08-30T02:48:23;6.25;;;4.65;;
4812;SDS011;2420;51.202;8.698;2023-08-30T02:50:49;5.13;;;4.63;;
4812;SDS011;2420;51.202;8.698;2023-08-30T02:53:14;5.75;;;4.65;;
4812;SDS011;2420;51.202;8.698;2023-08-30T02:55:40;6.20;;;4.72;;
4812;SDS011;2420;51.202;8.698;2023-08-30T02:58:05;5.70;;;4.78;;
4812;SDS011;2420;51.202;8.698;2023-08-30T03:00:31;8.88;;;4.65;;
4812;SDS011;2420;51.202;8.698;2023-08-30T03:02:56;5.55;;;4.95;;
4812;SDS011;2420;51.202;8.698;2023-08-30T03:05:22;7.65;;;5.00;;
4812;SDS011;2420;51.202;8.698;2023-08-30T03:07:48;6.20;;;4.88;;
4812;SDS011;2420;51.202;8.698;2023-08-30T03:10:13;5.47;;;4.95;;
4812;SDS011;2420;51.202;8.698;2023-08-30T03:12:39;4.95;;;4.45;;
4812;SDS011;2420;51.202;8.698;2023-08-30T03:15:04;5.50;;;4.63;;
4812;SDS011;2420;51.202;8.698;2023-08-30T03:17:31;6.60;;;5.05;;
4812;SDS011;2420;51.202;8.698;2023-08-30T03:19:56;6.70;;;4.93;;
4812;SDS011;2420;51.202;8.698;2023-08-30T03:22:22;5.20;;;4.70;;
4812;SDS011;2420;51.202;8.698;2023-08-30T03:24:48;8.02;;;4.97;;
4812;SDS011;2420;51.202;8.698;2023-08-30T03:27:14;6.43;;;5.10;;
4812;SDS011;2420;51.202;8.698;2023-08-30T03:29:40;5.43;;;4.53;;
4812;SDS011;2420;51.202;8.698;2023-08-30T03:32:06;5.20;;;4.70;;
4812;SDS011;2420;51.202;8.698;2023-08-30T03:34:31;5.75;;;5.05;;
4812;SDS011;2420;51.202;8.698;2023-08-30T03:36:57;5.10;;;4.60;;
4812;SDS011;2420;51.202;8.698;2023-08-30T03:39:22;5.65;;;4.70;;
4812;SDS011;2420;51.202;8.698;2023-08-30T03:41:49;5.32;;;4.60;;
4812;SDS011;2420;51.202;8.698;2023-08-30T03:44:15;5.00;;;4.50;;
4812;SDS011;2420;51.202;8.698;2023-08-30T03:46:40;5.97;;;4.22;;
4812;SDS011;2420;51.202;8.698;2023-08-30T03:49:06;6.90;;;4.90;;
4812;SDS011;2420;51.202;8.698;2023-08-30T03:51:32;5.70;;;4.57;;
4812;SDS011;2420;51.202;8.698;2023-08-30T03:53:57;5.85;;;5.00;;
4812;SDS011;2420;51.202;8.698;2023-08-30T03:56:23;4.88;;;4.40;;
4812;SDS011;2420;51.202;8.698;2023-08-30T03:58:48;6.03;;;4.70;;
4812;SDS011;2420;51.202;8.698;2023-08-30T04:01:14;5.97;;;4.45;;
4812;SDS011;2420;51.202;8.698;2023-08-30T04:03:39;4.93;;;4.43;;
4812;SDS011;2420;51.202;8.698;2023-08-30T04:06:05;6.18;;;5.05;;
4812;SDS011;2420;51.202;8.698;2023-08-30T04:08:31;5.07;;;4.50;;
4812;SDS011;2420;51.202;8.698;2023-08-30T04:10:56;6.72;;;4.72;;
4812;SDS011;2420;51.202;8.698;2023-08-30T04:13:22;5.50;;;4.90;;
4812;SDS011;2420;51.202;8.698;2023-08-30T04:15:47;5.47;;;4.88;;
4812;SDS011;2420;51.202;8.698;2023-08-30T04:18:13;5.72;;;4.68;;
4812;SDS011;2420;51.202;8.698;2023-08-30T04:20:42;5.90;;;5.00;;
4812;SDS011;2420;51.202;8.698;2023-08-30T04:23:12;5.82;;;4.75;;
4812;SDS011;2420;51.202;8.698;2023-08-30T04:25:38;6.72;;;4.63;;
4812;SDS011;2420;51.202;8.698;2023-08-30T04:28:04;7.28;;;5.10;;
4812;SDS011;2420;51.202;8.698;2023-08-30T04:30:29;5.45;;;4.90;;
4812;SDS011;2420;51.202;8.698;2023-08-30T04:32:55;6.18;;;4.80;;
4812;SDS011;2420;51.202;8.698;2023-08-30T04:35:21;6.30;;;4.57;;
4812;SDS011;2420;51.202;8.698;2023-08-30T04:37:46;5.15;;;4.65;;
4812;SDS011;2420;51.202;8.698;2023-08-30T04:40:13;7.25;;;5.10;;
4812;SDS011;2420;51.202;8.698;2023-08-30T04:42:39;5.57;;;4.88;;
4812;SDS011;2420;51.202;8.698;2023-08-30T04:45:05;4.93;;;4.25;;
4812;SDS011;2420;51.202;8.698;2023-08-30T04:47:32;6.15;;;4.63;;
4812;SDS011;2420;51.202;8.698;2023-08-30T04:49:58;5.47;;;4.85;;
4812;SDS011;2420;51.202;8.698;2023-08-30T04:52:24;5.53;;;4.60;;
4812;SDS011;2420;51.202;8.698;2023-08-30T04:54:50;5.55;;;4.80;;
4812;SDS011;2420;51.202;8.698;2023-08-30T04:57:15;5.40;;;4.55;;
4812;SDS011;2420;51.202;8.698;2023-08-30T04:59:42;7.03;;;4.63;;
4812;SDS011;2420;51.202;8.698;2023-08-30T05:02:08;6.65;;;4.20;;
4812;SDS011;2420;51.202;8.698;2023-08-30T05:04:33;8.45;;;4.97;;
4812;SDS011;2420;51.202;8.698;2023-08-30T05:06:59;5.22;;;4.72;;
4812;SDS011;2420;51.202;8.698;2023-08-30T05:09:25;5.80;;;4.75;;
4812;SDS011;2420;51.202;8.698;2023-08-30T05:11:51;6.90;;;5.03;;
4812;SDS011;2420;51.202;8.698;2023-08-30T05:14:17;8.35;;;5.18;;
4812;SDS011;2420;51.202;8.698;2023-08-30T05:16:43;5.90;;;5.30;;
4812;SDS011;2420;51.202;8.698;2023-08-30T05:19:08;8.27;;;5.82;;
4812;SDS011;2420;51.202;8.698;2023-08-30T05:21:34;5.85;;;5.20;;
4812;SDS011;2420;51.202;8.698;2023-08-30T05:24:00;5.90;;;5.30;;
4812;SDS011;2420;51.202;8.698;2023-08-30T05:26:25;8.13;;;5.60;;
4812;SDS011;2420;51.202;8.698;2023-08-30T05:28:51;7.70;;;5.47;;
4812;SDS011;2420;51.202;8.698;2023-08-30T05:31:16;5.97;;;5.35;;
4812;SDS011;2420;51.202;8.698;2023-08-30T05:33:42;6.18;;;5.10;;
4812;SDS011;2420;51.202;8.698;2023-08-30T05:36:07;5.97;;;5.15;;
4812;SDS011;2420;51.202;8.698;2023-08-30T05:38:33;7.30;;;5.35;;
4812;SDS011;2420;51.202;8.698;2023-08-30T05:40:59;5.50;;;4.97;;
4812;SDS011;2420;51.202;8.698;2023-08-30T05:43:24;7.55;;;5.57;;
4812;SDS011;2420;51.202;8.698;2023-08-30T05:45:50;7.13;;;5.55;;
4812;SDS011;2420;51.202;8.698;2023-08-30T05:48:15;6.80;;;5.30;;
4812;SDS011;2420;51.202;8.698;2023-08-30T05:50:41;6.72;;;5.32;;
4812;SDS011;2420;51.202;8.698;2023-08-30T05:53:06;6.35;;;5.35;;
4812;SDS011;2420;51.202;8.698;2023-08-30T05:55:32;6.28;;;5.43;;
4812;SDS011;2420;51.202;8.698;2023-08-30T05:57:58;5.65;;;5.03;;
4812;SDS011;2420;51.202;8.698;2023-08-30T06:00:23;6.55;;;5.65;;
4812;SDS011;2420;51.202;8.698;2023-08-30T06:02:50;6.88;;;5.82;;
4812;SDS011;2420;51.202;8.698;2023-08-30T06:05:16;8.30;;;5.50;;
4812;SDS011;2420;51.202;8.698;2023-08-30T06:07:42;8.27;;;5.75;;
4812;SDS011;2420;51.202;8.698;2023-08-30T06:10:08;8.70;;;6.20;;
4812;SDS011;2420;51.202;8.698;2023-08-30T06:12:34;7.65;;;6.03;;
4812;SDS011;2420;51.202;8.698;2023-08-30T06:14:59;7.13;;;6.20;;
4812;SDS011;2420;51.202;8.698;2023-08-30T06:17:25;6.93;;;6.10;;
4812;SDS011;2420;51.202;8.698;2023-08-30T06:19:50;8.35;;;6.50;;
4812;SDS011;2420;51.202;8.698;2023-08-30T06:22:16;7.93;;;6.82;;
4812;SDS011;2420;51.202;8.698;2023-08-30T06:24:42;7.20;;;6.50;;
4812;SDS011;2420;51.202;8.698;2023-08-30T06:27:07;10.07;;;7.35;;
4812;SDS011;2420;51.202;8.698;2023-08-30T06:29:33;7.40;;;6.68;;
4812;SDS011;2420;51.202;8.698;2023-08-30T06:31:59;7.63;;;6.82;;
4812;SDS011;2420;51.202;8.698;2023-08-30T06:34:24;8.18;;;6.70;;
4812;SDS011;2420;51.202;8.698;2023-08-30T06:36:50;7.25;;;6.30;;
4812;SDS011;2420;51.202;8.698;2023-08-30T06:39:17;9.32;;;6.70;;
4812;SDS011;2420;51.202;8.698;2023-08-30T06:41:42;8.65;;;6.50;;
4812;SDS011;2420;51.202;8.698;2023-08-30T06:44:08;7.38;;;6.28;;
4812;SDS011;2420;51.202;8.698;2023-08-30T06:46:33;7.18;;;6.45;;
4812;SDS011;2420;51.202;8.698;2023-08-30T06:48:59;9.10;;;6.70;;
4812;SDS011;2420;51.202;8.698;2023-08-30T06:51:25;9.77;;;7.00;;
4812;SDS011;2420;51.202;8.698;2023-08-30T06:53:50;10.50;;;7.18;;
4812;SDS011;2420;51.202;8.698;2023-08-30T06:56:16;7.45;;;6.57;;
4812;SDS011;2420;51.202;8.698;2023-08-30T06:58:41;8.98;;;6.53;;
4812;SDS011;2420;51.202;8.698;2023-08-30T07:01:07;8.63;;;7.28;;
4812;SDS011;2420;51.202;8.698;2023-08-30T07:03:32;7.80;;;7.00;;
4812;SDS011;2420;51.202;8.698;2023-08-30T07:05:58;8.75;;;7.45;;
4812;SDS011;2420;51.202;8.698;2023-08-30T07:08:23;9.02;;;7.07;;
4812;SDS011;2420;51.202;8.698;2023-08-30T07:10:50;8.68;;;7.05;;
4812;SDS011;2420;51.202;8.698;2023-08-30T07:13:16;9.95;;;7.78;;
4812;SDS011;2420;51.202;8.698;2023-08-30T07:15:42;9.07;;;7.72;;
4812;SDS011;2420;51.202;8.698;2023-08-30T07:18:08;8.45;;;7.55;;
4812;SDS011;2420;51.202;8.698;2023-08-30T07:20:34;9.75;;;8.50;;
4812;SDS011;2420;51.202;8.698;2023-08-30T07:23:01;12.60;;;8.60;;
4812;SDS011;2420;51.202;8.698;2023-08-30T07:25:27;10.77;;;8.57;;
4812;SDS011;2420;51.202;8.698;2023-08-30T07:27:54;12.93;;;9.00;;
4812;SDS011;2420;51.202;8.698;2023-08-30T07:30:19;9.55;;;8.32;;
4812;SDS011;2420;51.202;8.698;2023-08-30T07:32:45;10.98;;;8.32;;
4812;SDS011;2420;51.202;8.698;2023-08-30T07:35:10;9.00;;;7.93;;
4812;SDS011;2420;51.202;8.698;2023-08-30T07:37:36;9.32;;;8.30;;
4812;SDS011;2420;51.202;8.698;2023-08-30T07:40:02;9.27;;;7.60;;
4812;SDS011;2420;51.202;8.698;2023-08-30T07:42:30;10.55;;;8.70;;
4812;SDS011;2420;51.202;8.698;2023-08-30T07:44:56;9.05;;;7.78;;
4812;SDS011;2420;51.202;8.698;2023-08-30T07:47:21;9.20;;;7.80;;
4812;SDS011;2420;51.202;8.698;2023-08-30T07:49:47;11.07;;;8.30;;
4812;SDS011;2420;51.202;8.698;2023-08-30T07:52:12;12.18;;;8.02;;
4812;SDS011;2420;51.202;8.698;2023-08-30T07:54:39;8.65;;;7.20;;
4812;SDS011;2420;51.202;8.698;2023-08-30T07:57:05;8.60;;;7.70;;
4812;SDS011;2420;51.202;8.698;2023-08-30T07:59:34;10.07;;;7.78;;
4812;SDS011;2420;51.202;8.698;2023-08-30T08:02:01;10.98;;;8.25;;
4812;SDS011;2420;51.202;8.698;2023-08-30T08:04:28;10.43;;;7.75;;
4812;SDS011;2420;51.202;8.698;2023-08-30T08:06:53;12.57;;;8.48;;
4812;SDS011;2420;51.202;8.698;2023-08-30T08:09:19;11.07;;;8.32;;
4812;SDS011;2420;51.202;8.698;2023-08-30T08:11:46;13.35;;;8.80;;
4812;SDS011;2420;51.202;8.698;2023-08-30T08:14:13;12.48;;;9.18;;
4812;SDS011;2420;51.202;8.698;2023-08-30T08:16:38;11.60;;;9.30;;
4812;SDS011;2420;51.202;8.698;2023-08-30T08:19:04;14.00;;;9.70;;
4812;SDS011;2420;51.202;8.698;2023-08-30T08:21:31;11.57;;;9.05;;
4812;SDS011;2420;51.202;8.698;2023-08-30T08:23:56;10.55;;;9.00;;
4812;SDS011;2420;51.202;8.698;2023-08-30T08:26:22;10.52;;;8.38;;
4812;SDS011;2420;51.202;8.698;2023-08-30T08:28:47;10.60;;;8.77;;
4812;SDS011;2420;51.202;8.698;2023-08-30T08:31:13;12.80;;;8.80;;
4812;SDS011;2420;51.202;8.698;2023-08-30T08:33:39;11.32;;;8.73;;
4812;SDS011;2420;51.202;8.698;2023-08-30T08:36:05;9.65;;;7.93;;
4812;SDS011;2420;51.202;8.698;2023-08-30T08:38:30;10.60;;;8.77;;
4812;SDS011;2420;51.202;8.698;2023-08-30T08:41:03;13.77;;;9.00;;
4812;SDS011;2420;51.202;8.698;2023-08-30T08:43:30;11.15;;;8.98;;
4812;SDS011;2420;51.202;8.698;2023-08-30T08:46:01;13.50;;;9.60;;
4812;SDS011;2420;51.202;8.698;2023-08-30T08:48:28;13.32;;;10.13;;
4812;SDS011;2420;51.202;8.698;2023-08-30T08:50:54;12.68;;;9.05;;
4812;SDS011;2420;51.202;8.698;2023-08-30T08:53:21;13.45;;;9.85;;
4812;SDS011;2420;51.202;8.698;2023-08-30T08:55:48;13.68;;;9.77;;
4812;SDS011;2420;51.202;8.698;2023-08-30T08:58:14;12.77;;;10.35;;
4812;SDS011;2420;51.202;8.698;2023-08-30T09:00:41;14.85;;;9.90;;
4812;SDS011;2420;51.202;8.698;2023-08-30T09:03:08;15.88;;;12.02;;
4812;SDS011;2420;51.202;8.698;2023-08-30T09:05:37;19.17;;;12.88;;
4812;SDS011;2420;51.202;8.698;2023-08-30T09:08:04;16.60;;;11.52;;
4812;SDS011;2420;51.202;8.698;2023-08-30T09:10:34;17.23;;;12.07;;
4812;SDS011;2420;51.202;8.698;2023-08-30T09:13:01;15.57;;;12.27;;
4812;SDS011;2420;51.202;8.698;2023-08-30T09:15:32;15.48;;;11.30;;
4812;SDS011;2420;51.202;8.698;2023-08-30T09:17:59;15.23;;;11.30;;
4812;SDS011;2420;51.202;8.698;2023-08-30T09:20:25;18.50;;;11.40;;
4812;SDS011;2420;51.202;8.698;2023-08-30T09:22:50;16.30;;;12.15;;
4812;SDS011;2420;51.202;8.698;2023-08-30T09:25:23;17.83;;;13.70;;
4812;SDS011;2420;51.202;8.698;2023-08-30T09:27:50;18.58;;;13.15;;
4812;SDS011;2420;51.202;8.698;2023-08-30T09:30:21;16.70;;;12.80;;
4812;SDS011;2420;51.202;8.698;2023-08-30T09:32:46;16.17;;;13.02;;
4812;SDS011;2420;51.202;8.698;2023-08-30T09:35:12;16.42;;;12.13;;
4812;SDS011;2420;51.202;8.698;2023-08-30T09:37:38;17.73;;;12.77;;
4812;SDS011;2420;51.202;8.698;2023-08-30T09:40:04;15.93;;;12.88;;
4812;SDS011;2420;51.202;8.698;2023-08-30T09:42:30;14.70;;;11.85;;
4812;SDS011;2420;51.202;8.698;2023-08-30T09:44:56;15.98;;;11.45;;
4812;SDS011;2420;51.202;8.698;2023-08-30T09:47:23;12.48;;;10.80;;
4812;SDS011;2420;51.202;8.698;2023-08-30T09:49:51;15.73;;;12.02;;
4812;SDS011;2420;51.202;8.698;2023-08-30T09:52:20;15.60;;;11.60;;
4812;SDS011;2420;51.202;8.698;2023-08-30T09:54:51;14.82;;;11.98;;
4812;SDS011;2420;51.202;8.698;2023-08-30T09:57:16;15.55;;;11.95;;
4812;SDS011;2420;51.202;8.698;2023-08-30T09:59:43;17.85;;;13.23;;
4812;SDS011;2420;51.202;8.698;2023-08-30T10:02:10;16.65;;;12.82;;
4812;SDS011;2420;51.202;8.698;2023-08-30T10:04:37;15.45;;;12.85;;
4812;SDS011;2420;51.202;8.698;2023-08-30T10:07:06;16.38;;;13.48;;
4812;SDS011;2420;51.202;8.698;2023-08-30T10:09:32;15.10;;;12.80;;
4812;SDS011;2420;51.202;8.698;2023-08-30T10:11:58;16.85;;;11.73;;
4812;SDS011;2420;51.202;8.698;2023-08-30T10:14:26;14.57;;;11.75;;
4812;SDS011;2420;51.202;8.698;2023-08-30T10:16:59;14.55;;;11.63;;
4812;SDS011;2420;51.202;8.698;2023-08-30T10:19:28;14.23;;;11.13;;
4812;SDS011;2420;51.202;8.698;2023-08-30T10:22:01;13.27;;;11.38;;
4812;SDS011;2420;51.202;8.698;2023-08-30T10:24:38;12.23;;;9.50;;
4812;SDS011;2420;51.202;8.698;2023-08-30T10:27:08;12.88;;;11.05;;
4812;SDS011;2420;51.202;8.698;2023-08-30T10:29:36;12.07;;;9.98;;
4812;SDS011;2420;51.202;8.698;2023-08-30T10:32:04;11.57;;;10.23;;
4812;SDS011;2420;51.202;8.698;2023-08-30T10:34:33;12.25;;;10.50;;
4812;SDS011;2420;51.202;8.698;2023-08-30T10:37:01;13.15;;;9.63;;
4812;SDS011;2420;51.202;8.698;2023-08-30T10:39:40;11.07;;;9.88;;
4812;SDS011;2420;51.202;8.698;2023-08-30T10:42:11;13.50;;;11.32;;
4812;SDS011;2420;51.202;8.698;2023-08-30T10:44:46;11.40;;;9.90;;
4812;SDS011;2420;51.202;8.698;2023-08-30T10:47:23;11.90;;;9.45;;
4812;SDS011;2420;51.202;8.698;2023-08-30T10:49:54;10.45;;;9.13;;
4812;SDS011;2420;51.202;8.698;2023-08-30T10:52:21;12.27;;;10.00;;
4812;SDS011;2420;51.202;8.698;2023-08-30T10:54:47;11.40;;;9.52;;
4812;SDS011;2420;51.202;8.698;2023-08-30T10:57:13;10.10;;;8.45;;
4812;SDS011;2420;51.202;8.698;2023-08-30T10:59:47;10.93;;;8.70;;
4812;SDS011;2420;51.202;8.698;2023-08-30T11:02:29;12.25;;;10.15;;
4812;SDS011;2420;51.202;8.698;2023-08-30T11:04:57;11.82;;;9.20;;
4812;SDS011;2420;51.202;8.698;2023-08-30T11:07:24;14.40;;;9.38;;
4812;SDS011;2420;51.202;8.698;2023-08-30T11:09:51;10.98;;;8.65;;
4812;SDS011;2420;51.202;8.698;2023-08-30T11:12:20;12.13;;;9.23;;
4812;SDS011;2420;51.202;8.698;2023-08-30T11:14:48;11.40;;;9.30;;
4812;SDS011;2420;51.202;8.698;2023-08-30T11:17:18;13.68;;;9.95;;
4812;SDS011;2420;51.202;8.698;2023-08-30T11:19:44;12.55;;;8.75;;
4812;SDS011;2420;51.202;8.698;2023-08-30T11:22:12;10.00;;;8.13;;
4812;SDS011;2420;51.202;8.698;2023-08-30T11:24:38;9.25;;;7.88;;
4812;SDS011;2420;51.202;8.698;2023-08-30T11:27:05;8.15;;;6.32;;
4812;SDS011;2420;51.202;8.698;2023-08-30T11:29:31;7.82;;;6.40;;
4812;SDS011;2420;51.202;8.698;2023-08-30T11:31:57;7.40;;;6.63;;
4812;SDS011;2420;51.202;8.698;2023-08-30T11:34:22;8.18;;;6.38;;
4812;SDS011;2420;51.202;8.698;2023-08-30T11:36:49;8.13;;;6.57;;
4812;SDS011;2420;51.202;8.698;2023-08-30T11:39:18;7.38;;;6.55;;
4812;SDS011;2420;51.202;8.698;2023-08-30T11:41:43;7.95;;;7.15;;
4812;SDS011;2420;51.202;8.698;2023-08-30T11:44:10;7.38;;;5.57;;
4812;SDS011;2420;51.202;8.698;2023-08-30T11:46:35;8.10;;;6.30;;
4812;SDS011;2420;51.202;8.698;2023-08-30T11:49:01;6.60;;;5.90;;
4812;SDS011;2420;51.202;8.698;2023-08-30T11:51:28;7.80;;;6.30;;
4812;SDS011;2420;51.202;8.698;2023-08-30T11:53:54;6.10;;;5.50;;
4812;SDS011;2420;51.202;8.698;2023-08-30T11:56:21;8.10;;;5.90;;
4812;SDS011;2420;51.202;8.698;2023-08-30T11:58:47;6.97;;;5.97;;
4812;SDS011;2420;51.202;8.698;2023-08-30T12:01:13;6.28;;;5.60;;
4812;SDS011;2420;51.202;8.698;2023-08-30T12:03:39;6.53;;;5.82;;
4812;SDS011;2420;51.202;8.698;2023-08-30T12:06:09;6.45;;;5.28;;
4812;SDS011;2420;51.202;8.698;2023-08-30T12:08:36;5.75;;;5.15;;
4812;SDS011;2420;51.202;8.698;2023-08-30T12:11:02;5.55;;;4.60;;
4812;SDS011;2420;51.202;8.698;2023-08-30T12:13:34;6.63;;;4.75;;
4812;SDS011;2420;51.202;8.698;2023-08-30T12:16:00;4.93;;;4.18;;
4812;SDS011;2420;51.202;8.698;2023-08-30T12:18:27;5.93;;;4.30;;
4812;SDS011;2420;51.202;8.698;2023-08-30T12:23:26;5.00;;;4.18;;
4812;SDS011;2420;51.202;8.698;2023-08-30T12:25:56;5.10;;;3.80;;
4812;SDS011;2420;51.202;8.698;2023-08-30T12:28:27;5.30;;;4.22;;
4812;SDS011;2420;51.202;8.698;2023-08-30T12:30:53;7.03;;;4.13;;
4812;SDS011;2420;51.202;8.698;2023-08-30T12:33:20;5.25;;;3.55;;
4812;SDS011;2420;51.202;8.698;2023-08-30T12:35:45;3.60;;;3.30;;
4812;SDS011;2420;51.202;8.698;2023-08-30T12:38:11;3.47;;;3.17;;
4812;SDS011;2420;51.202;8.698;2023-08-30T12:40:37;5.85;;;4.03;;
4812;SDS011;2420;51.202;8.698;2023-08-30T12:43:03;7.53;;;5.22;;
4812;SDS011;2420;51.202;8.698;2023-08-30T12:45:29;6.03;;;4.00;;
4812;SDS011;2420;51.202;8.698;2023-08-30T12:47:54;4.70;;;3.10;;
4812;SDS011;2420;51.202;8.698;2023-08-30T12:50:23;4.15;;;3.35;;
4812;SDS011;2420;51.202;8.698;2023-08-30T12:52:49;5.95;;;3.35;;
4812;SDS011;2420;51.202;8.698;2023-08-30T12:55:14;3.85;;;3.45;;
4812;SDS011;2420;51.202;8.698;2023-08-30T12:57:40;5.13;;;3.20;;
4812;SDS011;2420;51.202;8.698;2023-08-30T13:00:06;3.67;;;3.35;;
4812;SDS011;2420;51.202;8.698;2023-08-30T13:02:32;3.78;;;3.38;;
4812;SDS011;2420;51.202;8.698;2023-08-30T13:04:57;5.22;;;3.50;;
4812;SDS011;2420;51.202;8.698;2023-08-30T13:07:23;5.22;;;3.15;;
4812;SDS011;2420;51.202;8.698;2023-08-30T13:09:49;4.07;;;3.08;;
4812;SDS011;2420;51.202;8.698;2023-08-30T13:12:15;4.63;;;3.50;;
4812;SDS011;2420;51.202;8.698;2023-08-30T13:14:40;3.97;;;3.03;;
4812;SDS011;2420;51.202;8.698;2023-08-30T13:17:06;5.13;;;3.40;;
4812;SDS011;2420;51.202;8.698;2023-08-30T13:19:31;5.57;;;3.20;;
4812;SDS011;2420;51.202;8.698;2023-08-30T13:21:57;4.20;;;3.38;;
4812;SDS011;2420;51.202;8.698;2023-08-30T13:24:22;4.38;;;3.30;;
4812;SDS011;2420;51.202;8.698;2023-08-30T13:26:48;6.47;;;3.17;;
4812;SDS011;2420;51.202;8.698;2023-08-30T13:29:14;3.45;;;3.00;;
4812;SDS011;2420;51.202;8.698;2023-08-30T13:31:40;4.93;;;3.25;;
4812;SDS011;2420;51.202;8.698;2023-08-30T13:34:05;5.13;;;3.75;;
4812;SDS011;2420;51.202;8.698;2023-08-30T13:36:31;6.72;;;3.63;;
4812;SDS011;2420;51.202;8.698;2023-08-30T13:38:57;4.50;;;3.45;;
4812;SDS011;2420;51.202;8.698;2023-08-30T13:41:22;4.68;;;3.10;;
4812;SDS011;2420;51.202;8.698;2023-08-30T13:43:48;3.67;;;2.88;;
4812;SDS011;2420;51.202;8.698;2023-08-30T13:46:13;4.65;;;3.10;;
4812;SDS011;2420;51.202;8.698;2023-08-30T13:48:39;4.00;;;3.00;;
4812;SDS011;2420;51.202;8.698;2023-08-30T13:51:05;3.67;;;2.80;;
4812;SDS011;2420;51.202;8.698;2023-08-30T13:53:30;3.15;;;2.80;;
4812;SDS011;2420;51.202;8.698;2023-08-30T13:55:56;4.68;;;2.90;;
4812;SDS011;2420;51.202;8.698;2023-08-30T13:58:21;4.85;;;3.20;;
4812;SDS011;2420;51.202;8.698;2023-08-30T14:00:47;4.03;;;3.10;;
4812;SDS011;2420;51.202;8.698;2023-08-30T14:03:12;5.38;;;3.03;;
4812;SDS011;2420;51.202;8.698;2023-08-30T14:05:38;4.15;;;2.95;;
4812;SDS011;2420;51.202;8.698;2023-08-30T14:08:06;5.18;;;3.00;;
4812;SDS011;2420;51.202;8.698;2023-08-30T14:10:32;5.13;;;2.80;;
4812;SDS011;2420;51.202;8.698;2023-08-30T14:12:58;5.60;;;2.90;;
4812;SDS011;2420;51.202;8.698;2023-08-30T14:15:23;2.83;;;2.53;;
4812;SDS011;2420;51.202;8.698;2023-08-30T14:17:49;3.67;;;2.70;;
4812;SDS011;2420;51.202;8.698;2023-08-30T14:20:14;4.28;;;3.05;;
4812;SDS011;2420;51.202;8.698;2023-08-30T14:22:40;4.65;;;2.95;;
4812;SDS011;2420;51.202;8.698;2023-08-30T14:25:05;5.25;;;3.17;;
4812;SDS011;2420;51.202;8.698;2023-08-30T14:27:31;4.53;;;3.45;;
4812;SDS011;2420;51.202;8.698;2023-08-30T14:29:57;4.40;;;3.40;;
4812;SDS011;2420;51.202;8.698;2023-08-30T14:32:22;4.15;;;3.28;;
4812;SDS011;2420;51.202;8.698;2023-08-30T14:34:48;3.47;;;2.85;;
4812;SDS011;2420;51.202;8.698;2023-08-30T14:37:13;4.18;;;3.20;;
4812;SDS011;2420;51.202;8.698;2023-08-30T14:39:39;4.50;;;2.97;;
4812;SDS011;2420;51.202;8.698;2023-08-30T14:42:04;5.97;;;3.22;;
4812;SDS011;2420;51.202;8.698;2023-08-30T14:44:30;3.28;;;2.97;;
4812;SDS011;2420;51.202;8.698;2023-08-30T14:46:55;4.75;;;3.42;;
4812;SDS011;2420;51.202;8.698;2023-08-30T14:49:21;3.58;;;3.05;;
4812;SDS011;2420;51.202;8.698;2023-08-30T14:51:46;6.70;;;3.20;;
4812;SDS011;2420;51.202;8.698;2023-08-30T14:54:12;4.00;;;3.00;;
4812;SDS011;2420;51.202;8.698;2023-08-30T14:56:37;5.03;;;3.40;;
4812;SDS011;2420;51.202;8.698;2023-08-30T14:59:03;3.90;;;3.00;;
4812;SDS011;2420;51.202;8.698;2023-08-30T15:01:29;3.95;;;3.03;;
4812;SDS011;2420;51.202;8.698;2023-08-30T15:03:54;5.70;;;3.30;;
4812;SDS011;2420;51.202;8.698;2023-08-30T15:06:20;3.60;;;3.20;;
4812;SDS011;2420;51.202;8.698;2023-08-30T15:08:47;3.75;;;3.00;;
4812;SDS011;2420;51.202;8.698;2023-08-30T15:11:13;4.82;;;3.50;;